Time;durP1;ratioP1;P1;durP2;ratioP2;P2;SDS_P1;SDS_P2;PMS_P1;PMS_P2;Temp;Humidity;BMP_temperature;BMP_pressure;BME280_temperature;BME280_humidity;BME280_pressure;Samples;Min_cycle;Max_cycle;Signal;HPM_P1;HPM_P2
2023/08/03 00:00:17;;;;;;;9.00;8.30;;;16.70;99.90;;;;;;4999247;28;20246;-77
2023/08/03 00:02:43;;;;;;;8.10;7.50;;;16.70;99.90;;;;;;4995139;28;20216;-77
2023/08/03 00:05:13;;;;;;;8.40;7.77;;;16.60;99.90;;;;;;4995363;28;20417;-77
2023/08/03 00:07:40;;;;;;;8.57;7.87;;;16.60;99.90;;;;;;4992740;28;20235;-77
2023/08/03 00:10:07;;;;;;;8.73;7.83;;;16.60;99.90;;;;;;5003437;28;20263;-77
2023/08/03 00:12:34;;;;;;;9.30;8.40;;;16.60;99.90;;;;;;4997657;28;20200;-77
2023/08/03 00:15:00;;;;;;;8.83;8.03;;;16.60;99.90;;;;;;4999614;28;20247;-77
2023/08/03 00:17:27;;;;;;;9.20;8.27;;;16.60;99.90;;;;;;5000920;28;20621;-77
2023/08/03 00:19:54;;;;;;;9.37;8.53;;;16.70;99.90;;;;;;4994930;28;20217;-77
2023/08/03 00:22:22;;;;;;;10.07;8.57;;;16.70;99.90;;;;;;5000118;28;20251;-77
2023/08/03 00:24:50;;;;;;;9.67;8.10;;;16.70;99.90;;;;;;4991815;28;20228;-77
2023/08/03 00:27:17;;;;;;;8.90;8.00;;;16.70;99.90;;;;;;4992726;28;20309;-77
2023/08/03 00:29:43;;;;;;;10.37;8.43;;;16.80;99.90;;;;;;4999576;28;20586;-76
2023/08/03 00:32:11;;;;;;;8.80;8.00;;;16.80;99.90;;;;;;4996327;28;20731;-77
2023/08/03 00:34:37;;;;;;;10.80;8.43;;;16.90;99.90;;;;;;4991679;28;20221;-77
2023/08/03 00:37:05;;;;;;;8.53;7.63;;;16.90;99.90;;;;;;4991989;28;20216;-77
2023/08/03 00:39:33;;;;;;;10.97;9.27;;;17.00;99.90;;;;;;4995499;28;20244;-77
2023/08/03 00:42:00;;;;;;;10.73;8.20;;;17.00;99.90;;;;;;4991659;28;20216;-77
2023/08/03 00:44:26;;;;;;;9.27;7.93;;;17.10;99.90;;;;;;4999248;28;20227;-77
2023/08/03 00:46:53;;;;;;;12.97;8.63;;;17.10;99.90;;;;;;4993080;28;20205;-77
2023/08/03 00:49:20;;;;;;;9.53;8.07;;;17.20;99.90;;;;;;4998674;28;20673;-77
2023/08/03 00:51:47;;;;;;;8.47;7.77;;;17.20;99.90;;;;;;5003760;28;20213;-77
2023/08/03 00:54:14;;;;;;;8.37;7.67;;;17.20;99.90;;;;;;5009037;28;20343;-77
2023/08/03 00:56:42;;;;;;;15.17;7.50;;;17.20;99.90;;;;;;4999458;28;20208;-77
2023/08/03 00:59:10;;;;;;;8.80;7.57;;;17.20;99.90;;;;;;4999203;28;20291;-77
2023/08/03 01:01:38;;;;;;;8.63;7.43;;;17.20;99.90;;;;;;5008806;28;20205;-77
2023/08/03 01:04:04;;;;;;;8.20;7.50;;;17.20;99.90;;;;;;4991814;28;20613;-77
2023/08/03 01:06:31;;;;;;;11.07;7.50;;;17.20;99.90;;;;;;4999494;28;20658;-77
2023/08/03 01:09:00;;;;;;;8.07;7.27;;;17.30;99.90;;;;;;4991504;28;20227;-77
2023/08/03 01:11:27;;;;;;;7.93;6.80;;;17.30;99.90;;;;;;4991548;28;20205;-77
2023/08/03 01:13:56;;;;;;;9.07;7.27;;;17.30;99.90;;;;;;4994598;28;20219;-77
2023/08/03 01:16:24;;;;;;;7.80;6.80;;;17.30;99.90;;;;;;4993688;28;20219;-77
2023/08/03 01:18:51;;;;;;;7.93;7.07;;;17.30;99.90;;;;;;4998129;28;20679;-77
2023/08/03 01:21:19;;;;;;;9.60;7.50;;;17.40;99.90;;;;;;4998649;28;20229;-77
2023/08/03 01:23:48;;;;;;;8.50;7.80;;;17.40;99.90;;;;;;4993248;28;20212;-77
2023/08/03 01:26:15;;;;;;;13.13;7.83;;;17.40;99.90;;;;;;4995228;28;20668;-77
2023/08/03 01:28:41;;;;;;;8.13;7.37;;;17.40;99.90;;;;;;5003725;28;20570;-77
2023/08/03 01:31:08;;;;;;;9.17;8.30;;;17.40;99.90;;;;;;4999825;28;20252;-77
2023/08/03 01:33:35;;;;;;;8.57;7.60;;;17.40;99.90;;;;;;4995104;28;20497;-77
2023/08/03 01:36:02;;;;;;;8.97;7.73;;;17.40;99.90;;;;;;4994858;28;20216;-77
2023/08/03 01:38:29;;;;;;;8.43;7.50;;;17.30;99.90;;;;;;4996288;28;20208;-77
2023/08/03 01:40:59;;;;;;;8.27;7.57;;;17.30;99.90;;;;;;4996302;28;20252;-77
2023/08/03 01:43:26;;;;;;;8.60;7.63;;;17.30;99.90;;;;;;4997247;28;20287;-77
2023/08/03 01:45:53;;;;;;;8.20;7.40;;;17.30;99.90;;;;;;5002006;28;20676;-77
2023/08/03 01:48:19;;;;;;;8.83;7.90;;;17.40;99.90;;;;;;4995096;28;20200;-77
2023/08/03 01:50:46;;;;;;;8.57;7.50;;;17.40;99.90;;;;;;5003136;28;20206;-77
2023/08/03 01:53:16;;;;;;;9.03;7.57;;;17.30;99.90;;;;;;4994589;28;20205;-77
2023/08/03 01:55:46;;;;;;;8.03;7.33;;;17.40;99.90;;;;;;5006675;28;20232;-77
2023/08/03 01:58:15;;;;;;;9.10;7.87;;;17.30;99.90;;;;;;5005206;28;20574;-77
2023/08/03 02:00:42;;;;;;;8.23;7.53;;;17.40;99.90;;;;;;4994586;28;20217;-77
2023/08/03 02:03:09;;;;;;;7.90;7.20;;;17.30;99.90;;;;;;4995132;28;20584;-77
2023/08/03 02:05:36;;;;;;;7.43;6.80;;;17.40;99.90;;;;;;4995269;28;20224;-77
2023/08/03 02:08:02;;;;;;;7.87;7.10;;;17.40;99.90;;;;;;5000189;28;20201;-77
2023/08/03 02:10:29;;;;;;;8.03;7.30;;;17.40;99.90;;;;;;4994713;28;20442;-77
2023/08/03 02:12:56;;;;;;;8.57;7.07;;;17.40;99.90;;;;;;4998731;28;20270;-77
2023/08/03 02:15:25;;;;;;;8.50;7.60;;;17.40;99.90;;;;;;4994487;28;20610;-77
2023/08/03 02:17:52;;;;;;;7.90;7.30;;;17.40;99.90;;;;;;4994591;28;20204;-77
2023/08/03 02:20:19;;;;;;;8.67;7.73;;;17.40;99.90;;;;;;5007254;28;20215;-77
2023/08/03 02:22:46;;;;;;;8.30;7.50;;;17.40;99.90;;;;;;5010166;28;20189;-77
2023/08/03 02:25:12;;;;;;;8.40;7.60;;;17.40;99.90;;;;;;4997944;28;20224;-77
2023/08/03 02:27:40;;;;;;;8.40;7.60;;;17.40;99.90;;;;;;4996560;28;20201;-77
2023/08/03 02:30:09;;;;;;;7.80;7.10;;;17.40;99.90;;;;;;5002285;28;20676;-77
2023/08/03 02:32:40;;;;;;;9.47;7.93;;;17.40;99.90;;;;;;4999254;28;20577;-77
2023/08/03 02:35:09;;;;;;;8.20;7.20;;;17.40;99.90;;;;;;4994233;28;20217;-77
2023/08/03 02:37:36;;;;;;;7.90;7.20;;;17.40;99.90;;;;;;5010447;28;20291;-77
2023/08/03 02:40:11;;;;;;;8.57;7.07;;;17.50;99.90;;;;;;4993817;28;20211;-77
2023/08/03 02:42:38;;;;;;;8.13;7.43;;;17.40;99.90;;;;;;4999368;28;20230;-77
2023/08/03 02:45:08;;;;;;;7.83;7.00;;;17.40;99.90;;;;;;4993812;28;20213;-77
2023/08/03 02:47:34;;;;;;;7.90;7.10;;;17.40;99.90;;;;;;4993584;28;20722;-77
2023/08/03 02:50:03;;;;;;;7.93;7.10;;;17.40;99.90;;;;;;4993679;28;20200;-77
2023/08/03 02:52:30;;;;;;;7.67;7.17;;;17.30;99.90;;;;;;5000597;28;20204;-78
2023/08/03 02:54:57;;;;;;;7.77;7.07;;;17.30;99.90;;;;;;5018495;28;20592;-79
2023/08/03 02:57:24;;;;;;;8.83;7.93;;;17.30;99.90;;;;;;5014959;28;20197;-81
2023/08/03 02:59:52;;;;;;;8.33;7.17;;;17.30;99.90;;;;;;5009038;28;20204;-81
2023/08/03 03:02:22;;;;;;;12.40;7.87;;;17.30;99.90;;;;;;5015496;28;20663;-80
2023/08/03 03:04:49;;;;;;;8.60;7.80;;;17.30;99.90;;;;;;5011396;28;20223;-81
2023/08/03 03:07:18;;;;;;;8.67;7.77;;;17.40;99.90;;;;;;5016994;28;20196;-80
2023/08/03 03:09:45;;;;;;;8.67;7.90;;;17.30;99.90;;;;;;5016565;28;20279;-80
2023/08/03 03:12:12;;;;;;;9.13;8.23;;;17.40;99.90;;;;;;5015274;28;20199;-79
2023/08/03 03:14:45;;;;;;;8.67;7.60;;;17.40;99.90;;;;;;5010553;28;20215;-81
2023/08/03 03:17:17;;;;;;;7.83;7.17;;;17.40;99.90;;;;;;5014855;28;20201;-81
2023/08/03 03:19:45;;;;;;;7.93;7.23;;;17.40;99.90;;;;;;5012323;28;20200;-80
2023/08/03 03:22:13;;;;;;;8.00;7.30;;;17.40;99.90;;;;;;5002444;28;20212;-80
2023/08/03 03:24:42;;;;;;;7.53;6.93;;;17.40;99.90;;;;;;4996301;28;20662;-81
2023/08/03 03:27:09;;;;;;;7.30;6.60;;;17.40;99.90;;;;;;5001900;28;20304;-81
2023/08/03 03:29:45;;;;;;;7.47;6.70;;;17.40;99.90;;;;;;5012861;28;20228;-81
2023/08/03 03:32:15;;;;;;;8.33;7.50;;;17.30;99.90;;;;;;4997959;28;20225;-80
2023/08/03 03:34:45;;;;;;;8.27;7.60;;;17.40;99.90;;;;;;5001726;28;20268;-81
2023/08/03 03:37:14;;;;;;;8.30;7.47;;;17.50;99.90;;;;;;5016323;28;20197;-81
2023/08/03 03:39:43;;;;;;;7.97;7.27;;;17.50;99.90;;;;;;5006347;28;20231;-81
2023/08/03 03:42:15;;;;;;;8.43;7.40;;;17.50;99.90;;;;;;5000671;28;20209;-80
2023/08/03 03:44:42;;;;;;;7.93;7.20;;;17.40;99.90;;;;;;4995154;28;20755;-80
2023/08/03 03:47:09;;;;;;;7.73;7.03;;;17.40;99.90;;;;;;4998244;28;20478;-81
2023/08/03 03:49:40;;;;;;;7.93;7.23;;;17.50;99.90;;;;;;4999261;28;20255;-79
2023/08/03 03:52:08;;;;;;;7.50;6.80;;;17.40;99.90;;;;;;5005520;28;20201;-81
2023/08/03 03:54:36;;;;;;;12.13;7.00;;;17.40;99.90;;;;;;5002409;28;20213;-80
2023/08/03 03:57:08;;;;;;;7.30;6.80;;;17.40;99.90;;;;;;5003176;28;20643;-81
2023/08/03 03:59:35;;;;;;;7.30;6.63;;;17.40;99.90;;;;;;5003749;28;20207;-81
2023/08/03 04:02:02;;;;;;;6.60;6.20;;;17.40;99.90;;;;;;5007703;28;20221;-80
2023/08/03 04:04:29;;;;;;;7.00;6.50;;;17.40;99.90;;;;;;5006396;28;20221;-80
2023/08/03 04:06:56;;;;;;;7.40;6.70;;;17.40;99.90;;;;;;5006772;28;20212;-80
2023/08/03 04:09:23;;;;;;;7.40;6.70;;;17.30;99.90;;;;;;5008846;28;20184;-80
2023/08/03 04:11:50;;;;;;;7.30;6.70;;;17.20;99.90;;;;;;5008651;28;20200;-80
2023/08/03 04:14:18;;;;;;;6.87;6.30;;;17.10;99.90;;;;;;5007099;28;20662;-79
2023/08/03 04:16:46;;;;;;;8.03;7.00;;;17.10;99.90;;;;;;5003665;28;20696;-80
2023/08/03 04:19:12;;;;;;;7.30;6.70;;;17.00;99.90;;;;;;5005271;28;20260;-80
2023/08/03 04:21:39;;;;;;;7.67;7.13;;;17.00;99.90;;;;;;5005455;28;20237;-81
2023/08/03 04:24:06;;;;;;;8.03;7.50;;;16.90;99.90;;;;;;5001811;28;20240;-81
2023/08/03 04:26:34;;;;;;;8.23;7.53;;;16.90;99.90;;;;;;4998457;28;20254;-80
2023/08/03 04:29:04;;;;;;;7.83;7.23;;;16.90;99.90;;;;;;5006131;28;20584;-81
2023/08/03 04:31:33;;;;;;;7.57;6.97;;;16.90;99.90;;;;;;5009416;28;20206;-80
2023/08/03 04:34:02;;;;;;;7.90;7.30;;;16.90;99.90;;;;;;5013648;28;20224;-80
2023/08/03 04:36:30;;;;;;;7.77;7.17;;;17.00;99.90;;;;;;5008791;28;20204;-80
2023/08/03 04:38:56;;;;;;;7.87;7.17;;;17.00;99.90;;;;;;4998226;28;20204;-81
2023/08/03 04:41:27;;;;;;;8.07;7.40;;;17.00;99.90;;;;;;5002684;28;20214;-80
2023/08/03 04:43:54;;;;;;;7.63;7.10;;;17.00;99.90;;;;;;5001291;28;20220;-80
2023/08/03 04:46:22;;;;;;;7.87;7.30;;;17.00;99.90;;;;;;4996089;28;20332;-80
2023/08/03 04:48:53;;;;;;;8.50;7.80;;;17.00;99.90;;;;;;5009161;28;20662;-80
2023/08/03 04:51:20;;;;;;;8.17;7.57;;;17.00;99.90;;;;;;5010228;28;20205;-79
2023/08/03 04:53:49;;;;;;;8.43;7.70;;;17.00;99.90;;;;;;5011676;28;20204;-81
2023/08/03 04:56:17;;;;;;;8.50;7.77;;;17.00;99.90;;;;;;5008438;28;20205;-81
2023/08/03 04:58:44;;;;;;;7.40;7.00;;;17.10;99.90;;;;;;5016591;28;20220;-80
2023/08/03 05:01:12;;;;;;;7.47;6.97;;;17.10;99.90;;;;;;5009039;28;20213;-80
2023/08/03 05:03:39;;;;;;;7.93;7.17;;;17.10;99.90;;;;;;5016236;28;20708;-78
2023/08/03 05:06:07;;;;;;;7.63;7.13;;;17.20;99.90;;;;;;5009739;28;20212;-80
2023/08/03 05:08:34;;;;;;;8.33;7.63;;;17.20;99.90;;;;;;5007846;28;20193;-80
2023/08/03 05:11:01;;;;;;;8.53;7.90;;;17.20;99.90;;;;;;5013087;28;20467;-81
2023/08/03 05:13:33;;;;;;;8.60;8.00;;;17.30;99.90;;;;;;5006965;28;20192;-81
2023/08/03 05:16:00;;;;;;;8.30;7.70;;;17.30;99.90;;;;;;5007198;28;20254;-80
2023/08/03 05:18:26;;;;;;;8.20;7.60;;;17.40;99.90;;;;;;5013464;28;20191;-81
2023/08/03 05:20:53;;;;;;;8.47;7.30;;;17.50;99.90;;;;;;5000202;28;20223;-81
2023/08/03 05:23:21;;;;;;;8.50;7.70;;;17.60;99.90;;;;;;5005541;28;20197;-81
2023/08/03 05:25:53;;;;;;;8.00;7.50;;;17.60;99.90;;;;;;5007671;28;20274;-81
2023/08/03 05:28:20;;;;;;;7.90;7.30;;;17.70;99.90;;;;;;4999389;28;20236;-81
2023/08/03 05:30:47;;;;;;;7.90;7.30;;;17.80;99.90;;;;;;5004483;28;20193;-80
2023/08/03 05:33:14;;;;;;;8.07;7.47;;;17.90;99.90;;;;;;5000540;28;20232;-81
2023/08/03 05:35:41;;;;;;;7.63;7.03;;;18.00;99.90;;;;;;5006107;28;20239;-80
2023/08/03 05:38:08;;;;;;;8.13;7.33;;;18.10;99.90;;;;;;5002955;28;20197;-80
2023/08/03 05:40:40;;;;;;;7.33;6.93;;;18.30;99.90;;;;;;5004806;28;20198;-81
2023/08/03 05:43:10;;;;;;;7.90;7.33;;;18.40;99.90;;;;;;5010531;28;20201;-81
2023/08/03 05:45:41;;;;;;;8.20;7.60;;;18.50;99.90;;;;;;5009361;28;20296;-81
2023/08/03 05:48:14;;;;;;;7.47;6.90;;;18.60;99.90;;;;;;5000718;28;20205;-81
2023/08/03 05:50:44;;;;;;;3.37;2.13;;;18.70;99.90;;;;;;5007943;28;20279;-81
2023/08/03 05:53:11;;;;;;;4.87;2.50;;;18.90;99.90;;;;;;5001168;28;20206;-82
2023/08/03 05:55:40;;;;;;;7.77;7.17;;;19.20;99.90;;;;;;5003445;28;20230;-81
2023/08/03 05:58:10;;;;;;;7.33;6.73;;;19.30;99.90;;;;;;5015532;28;20202;-81
2023/08/03 06:00:37;;;;;;;6.97;6.47;;;19.40;99.90;;;;;;5010783;28;20198;-80
2023/08/03 06:03:04;;;;;;;12.23;7.63;;;19.40;99.90;;;;;;5014485;28;20211;-81
2023/08/03 06:05:42;;;;;;;8.57;7.83;;;19.30;99.90;;;;;;4998395;28;20570;-81
2023/08/03 06:08:12;;;;;;;6.23;4.20;;;19.30;99.90;;;;;;5007104;28;20498;-81
2023/08/03 06:10:41;;;;;;;5.60;2.20;;;19.10;99.90;;;;;;5011350;28;20233;-81
2023/08/03 06:13:11;;;;;;;6.50;2.60;;;19.20;99.90;;;;;;5006356;28;20199;-81
2023/08/03 06:15:37;;;;;;;3.93;2.17;;;19.20;99.90;;;;;;5003719;28;20298;-81
2023/08/03 06:18:06;;;;;;;4.23;2.17;;;19.30;99.90;;;;;;4997994;28;20639;-82
2023/08/03 06:20:34;;;;;;;4.97;4.53;;;19.30;99.90;;;;;;5005296;28;20200;-82
2023/08/03 06:23:01;;;;;;;4.80;4.43;;;19.30;99.90;;;;;;5000837;28;20714;-82
2023/08/03 06:25:29;;;;;;;2.87;2.50;;;19.40;99.90;;;;;;5005992;28;20228;-82
2023/08/03 06:27:59;;;;;;;6.33;4.20;;;19.40;99.90;;;;;;5001599;28;20199;-81
2023/08/03 06:30:25;;;;;;;4.53;4.20;;;19.50;99.90;;;;;;4998194;28;20385;-81
2023/08/03 06:32:52;;;;;;;6.73;6.20;;;19.50;99.90;;;;;;4997790;28;20200;-79
2023/08/03 06:35:35;;;;;;;7.73;7.10;;;19.60;99.90;;;;;;5006334;28;20531;-80
2023/08/03 06:38:02;;;;;;;6.40;5.80;;;19.60;99.90;;;;;;5005643;28;20216;-81
2023/08/03 06:40:29;;;;;;;6.97;6.40;;;19.70;99.90;;;;;;4997405;28;20297;-80
2023/08/03 06:42:58;;;;;;;7.07;6.50;;;20.00;99.90;;;;;;4997783;28;20225;-82
2023/08/03 06:45:25;;;;;;;6.73;6.20;;;20.30;99.90;;;;;;4997376;28;20671;-82
2023/08/03 06:47:53;;;;;;;7.20;6.60;;;20.60;99.90;;;;;;4996868;28;20185;-82
2023/08/03 06:50:19;;;;;;;5.37;4.30;;;20.60;99.90;;;;;;5010364;28;20258;-82
2023/08/03 06:52:46;;;;;;;5.47;4.97;;;20.60;99.90;;;;;;5007372;28;20247;-82
2023/08/03 06:55:13;;;;;;;5.60;5.10;;;20.70;99.90;;;;;;5000211;28;20703;-81
2023/08/03 06:57:40;;;;;;;3.93;3.07;;;21.00;99.90;;;;;;5003832;28;20676;-82
2023/08/03 07:00:09;;;;;;;3.33;2.20;;;21.30;99.90;;;;;;4997413;28;20210;-82
2023/08/03 07:02:36;;;;;;;4.00;2.07;;;21.70;99.90;;;;;;4999358;28;20221;-82
2023/08/03 07:05:03;;;;;;;3.43;2.60;;;22.10;99.90;;;;;;5008821;28;20253;-83
2023/08/03 07:07:31;;;;;;;2.70;2.50;;;22.60;99.90;;;;;;4997961;28;20208;-82
2023/08/03 07:09:59;;;;;;;3.10;2.43;;;23.10;99.90;;;;;;5003641;28;20232;-81
2023/08/03 07:12:26;;;;;;;3.30;3.03;;;23.30;99.90;;;;;;4997024;28;20225;-82
2023/08/03 07:14:53;;;;;;;2.80;2.43;;;23.10;99.90;;;;;;4997314;28;20236;-82
2023/08/03 07:17:21;;;;;;;4.67;2.83;;;22.90;99.90;;;;;;5001979;28;20426;-83
2023/08/03 07:19:50;;;;;;;3.80;3.47;;;22.50;99.90;;;;;;5026411;28;20200;-81
2023/08/03 07:22:17;;;;;;;4.73;2.70;;;22.00;99.90;;;;;;5000432;28;20303;-82
2023/08/03 07:24:44;;;;;;;3.10;2.70;;;21.60;99.90;;;;;;4996829;28;20708;-80
2023/08/03 07:27:12;;;;;;;2.97;2.20;;;21.30;99.90;;;;;;4996401;28;20197;-81
2023/08/03 07:29:39;;;;;;;4.60;2.17;;;21.00;99.90;;;;;;4994607;28;20263;-81
2023/08/03 07:32:07;;;;;;;7.77;7.17;;;20.80;99.90;;;;;;4996686;28;20665;-82
2023/08/03 07:34:35;;;;;;;4.33;2.60;;;20.60;99.90;;;;;;4998541;28;20220;-81
2023/08/03 07:37:02;;;;;;;4.40;3.37;;;20.60;99.90;;;;;;4999719;28;20287;-80
2023/08/03 07:39:29;;;;;;;8.50;7.80;;;20.70;99.90;;;;;;4995393;28;20446;-81
2023/08/03 07:41:56;;;;;;;3.57;2.70;;;21.10;99.90;;;;;;4995705;28;20762;-80
2023/08/03 07:44:23;;;;;;;2.90;2.60;;;21.70;99.90;;;;;;5004616;28;20243;-80
2023/08/03 07:46:50;;;;;;;3.77;2.20;;;22.00;99.90;;;;;;5006424;28;20698;-80
2023/08/03 07:49:17;;;;;;;3.07;2.87;;;22.00;99.90;;;;;;4998738;28;20197;-81
2023/08/03 07:51:47;;;;;;;2.73;2.17;;;21.70;99.90;;;;;;5004258;28;20197;-81
2023/08/03 07:54:14;;;;;;;3.03;2.40;;;21.60;99.90;;;;;;4994269;28;20225;-77
2023/08/03 07:56:41;;;;;;;3.07;2.10;;;21.50;99.90;;;;;;5001576;28;20197;-80
2023/08/03 07:59:10;;;;;;;3.73;2.80;;;21.30;99.90;;;;;;5008481;28;20207;-80
2023/08/03 08:01:37;;;;;;;3.10;2.23;;;21.10;99.90;;;;;;5013145;28;20266;-81
2023/08/03 08:04:04;;;;;;;3.78;3.50;;;20.90;99.90;;;;;;5008071;28;20493;-81
2023/08/03 08:06:31;;;;;;;1.95;1.80;;;21.00;99.90;;;;;;4997649;28;20466;-81
2023/08/03 08:08:59;;;;;;;3.87;2.50;;;21.20;99.90;;;;;;5005529;28;20204;-80
2023/08/03 08:11:26;;;;;;;3.63;3.10;;;21.20;99.90;;;;;;5002447;28;20185;-80
2023/08/03 08:13:53;;;;;;;2.90;2.60;;;21.10;99.90;;;;;;5004359;28;20233;-80
2023/08/03 08:16:19;;;;;;;3.23;2.40;;;21.10;99.90;;;;;;5013192;28;20645;-80
2023/08/03 08:18:46;;;;;;;2.50;1.97;;;21.00;99.90;;;;;;5006562;28;20228;-81
2023/08/03 08:21:14;;;;;;;2.63;2.00;;;21.00;99.90;;;;;;5004215;28;20208;-80
2023/08/03 08:23:43;;;;;;;6.00;5.40;;;21.20;99.90;;;;;;5007637;28;20703;-81
2023/08/03 08:26:12;;;;;;;5.30;4.90;;;21.30;99.90;;;;;;5002685;28;20304;-80
2023/08/03 08:28:40;;;;;;;5.57;5.07;;;21.30;99.90;;;;;;5008884;28;20218;-83
2023/08/03 08:31:08;;;;;;;5.90;5.30;;;21.10;99.90;;;;;;5006860;28;20219;-82
2023/08/03 08:33:35;;;;;;;1.90;1.80;;;21.10;99.90;;;;;;5002197;28;20293;-80
2023/08/03 08:36:03;;;;;;;1.90;1.80;;;21.10;99.90;;;;;;5005724;28;20673;-81
2023/08/03 08:38:30;;;;;;;2.40;2.20;;;21.30;99.90;;;;;;5008367;28;20255;-80
2023/08/03 08:40:57;;;;;;;3.23;2.30;;;21.50;99.90;;;;;;5003425;28;20201;-80
2023/08/03 08:43:25;;;;;;;4.77;2.70;;;21.70;99.90;;;;;;5005613;28;20213;-81
2023/08/03 08:45:53;;;;;;;5.43;2.23;;;21.90;99.90;;;;;;5001052;28;20264;-80
2023/08/03 08:48:19;;;;;;;2.77;2.50;;;22.00;99.90;;;;;;5005628;28;20193;-79
2023/08/03 08:50:47;;;;;;;2.60;1.93;;;22.00;99.90;;;;;;5005207;28;20229;-81
2023/08/03 08:53:15;;;;;;;3.07;2.10;;;21.70;99.90;;;;;;5006292;28;20200;-78
2023/08/03 08:55:42;;;;;;;2.47;2.27;;;21.70;99.90;;;;;;4998631;28;20243;-78
2023/08/03 08:58:09;;;;;;;3.73;2.97;;;21.60;99.90;;;;;;5001484;28;20659;-78
2023/08/03 09:00:44;;;;;;;3.20;2.97;;;21.60;99.90;;;;;;5001135;28;20224;-78
2023/08/03 09:03:12;;;;;;;3.20;2.20;;;21.70;99.90;;;;;;5010516;28;20303;-79
2023/08/03 09:05:39;;;;;;;2.73;2.10;;;21.90;99.90;;;;;;5006140;28;20223;-78
2023/08/03 09:08:07;;;;;;;2.00;1.80;;;21.90;99.90;;;;;;4994880;28;20668;-79
2023/08/03 09:10:50;;;;;;;2.10;1.90;;;22.00;99.90;;;;;;4996594;28;20193;-78
2023/08/03 09:13:27;;;;;;;2.10;1.90;;;22.40;99.90;;;;;;4992076;28;20200;-79
2023/08/03 09:15:56;;;;;;;2.38;2.00;;;22.60;99.90;;;;;;4996447;28;21001;-79
2023/08/03 09:18:25;;;;;;;2.50;1.90;;;22.60;99.90;;;;;;4997288;28;20244;-78
2023/08/03 09:20:52;;;;;;;3.53;3.33;;;22.60;99.90;;;;;;4992102;28;20271;-78
2023/08/03 09:23:28;;;;;;;3.67;3.22;;;22.30;99.90;;;;;;4996441;28;20489;-78
2023/08/03 09:25:56;;;;;;;3.73;3.50;;;22.20;99.90;;;;;;5001174;28;20224;-78
2023/08/03 09:28:35;;;;;;;4.43;2.70;;;22.10;99.90;;;;;;5003825;28;20259;-78
2023/08/03 09:31:03;;;;;;;3.35;2.20;;;22.00;99.90;;;;;;4991540;28;20811;-78
2023/08/03 09:33:31;;;;;;;2.45;2.25;;;21.80;99.90;;;;;;5006497;28;20948;-78
2023/08/03 09:36:05;;;;;;;1.83;1.73;;;21.70;99.90;;;;;;5009626;28;20233;-78
2023/08/03 09:38:32;;;;;;;4.90;4.50;;;21.80;99.90;;;;;;4997597;28;20196;-78
2023/08/03 09:40:59;;;;;;;5.70;4.87;;;21.90;99.90;;;;;;5009848;28;20197;-78
2023/08/03 09:43:27;;;;;;;5.00;4.60;;;22.20;99.90;;;;;;5010716;28;20303;-78
2023/08/03 09:45:55;;;;;;;3.43;3.13;;;22.60;99.90;;;;;;5008537;28;20268;-78
2023/08/03 09:48:24;;;;;;;2.90;2.30;;;22.80;99.90;;;;;;5013429;28;20263;-78
2023/08/03 09:50:52;;;;;;;2.13;1.87;;;23.20;99.90;;;;;;5014537;28;20679;-79
2023/08/03 09:53:22;;;;;;;2.40;2.20;;;23.50;99.90;;;;;;5013351;28;20211;-78
2023/08/03 09:55:58;;;;;;;5.90;5.40;;;23.60;99.90;;;;;;5007632;28;20236;-78
2023/08/03 09:58:37;;;;;;;3.57;2.87;;;23.40;99.90;;;;;;5008976;28;20597;-77
2023/08/03 10:01:05;;;;;;;2.27;2.00;;;23.20;99.90;;;;;;5010502;28;20617;-79
2023/08/03 10:03:35;;;;;;;6.17;5.67;;;23.10;99.90;;;;;;5013801;28;20256;-80
2023/08/03 10:06:08;;;;;;;6.63;6.20;;;23.00;99.90;;;;;;5007512;28;20227;-80
2023/08/03 10:08:43;;;;;;;6.73;6.20;;;23.00;99.90;;;;;;5003223;28;20197;-78
2023/08/03 10:11:12;;;;;;;6.60;6.20;;;23.10;99.90;;;;;;5007814;28;20220;-79
2023/08/03 10:13:42;;;;;;;6.80;6.30;;;23.10;99.90;;;;;;5014658;28;20222;-77
2023/08/03 10:16:10;;;;;;;6.87;6.37;;;23.10;99.90;;;;;;5009452;28;20204;-78
2023/08/03 10:18:39;;;;;;;6.37;5.97;;;23.30;99.90;;;;;;5014804;28;20454;-80
2023/08/03 10:21:06;;;;;;;3.47;2.20;;;23.30;99.90;;;;;;5005844;28;20202;-83
2023/08/03 10:23:35;;;;;;;6.50;6.05;;;23.00;99.90;;;;;;5006458;28;20443;-81
2023/08/03 10:26:08;;;;;;;6.50;6.07;;;22.80;99.90;;;;;;5009722;28;20196;-83
2023/08/03 10:28:46;;;;;;;2.07;1.90;;;22.50;99.90;;;;;;5009169;28;20193;-83
2023/08/03 10:31:15;;;;;;;5.22;4.93;;;22.40;99.90;;;;;;5016630;28;20485;-82
2023/08/03 10:34:26;;;;;;;4.53;4.07;;;22.10;99.90;;;;;;5015136;28;20193;-82
2023/08/03 10:36:53;;;;;;;3.63;3.33;;;21.90;99.90;;;;;;5014273;28;20216;-82
2023/08/03 10:39:49;;;;;;;3.17;2.63;;;21.70;99.90;;;;;;5003902;28;20205;-81
2023/08/03 10:42:21;;;;;;;5.50;5.20;;;21.50;99.90;;;;;;5019195;28;20663;-83
2023/08/03 10:44:49;;;;;;;4.97;4.67;;;21.60;99.90;;;;;;5007093;28;20579;-82
2023/08/03 10:47:27;;;;;;;6.50;6.00;;;21.50;99.90;;;;;;5015414;28;20254;-82
2023/08/03 10:49:57;;;;;;;2.50;1.80;;;21.50;99.90;;;;;;5003536;28;20675;-82
2023/08/03 10:52:29;;;;;;;2.80;2.60;;;21.60;99.90;;;;;;5009604;28;20216;-82
2023/08/03 10:54:58;;;;;;;3.20;2.10;;;21.50;99.90;;;;;;5004319;28;20237;-82
2023/08/03 10:57:29;;;;;;;2.43;1.90;;;21.70;99.90;;;;;;5005749;28;20208;-82
2023/08/03 10:59:57;;;;;;;2.80;1.90;;;22.10;99.90;;;;;;5011403;28;20212;-82
2023/08/03 11:02:28;;;;;;;6.33;5.90;;;22.30;99.90;;;;;;5012282;28;20208;-82
2023/08/03 11:04:58;;;;;;;6.60;6.00;;;22.60;99.90;;;;;;5016852;28;20427;-83
2023/08/03 11:07:27;;;;;;;2.93;1.90;;;22.90;99.90;;;;;;5012429;28;20626;-82
2023/08/03 11:09:55;;;;;;;3.73;1.83;;;23.00;99.90;;;;;;5018110;28;20199;-82
2023/08/03 11:12:23;;;;;;;2.17;1.70;;;23.00;99.90;;;;;;5011541;28;20208;-82
2023/08/03 11:14:52;;;;;;;2.60;2.07;;;23.00;99.90;;;;;;5012191;28;20234;-82
2023/08/03 11:17:23;;;;;;;2.25;2.05;;;22.90;99.90;;;;;;5004234;28;20424;-82
2023/08/03 11:19:50;;;;;;;2.50;1.80;;;22.80;99.90;;;;;;5016853;28;20200;-83
2023/08/03 11:22:18;;;;;;;6.10;5.50;;;22.60;99.90;;;;;;5009929;28;20648;-82
2023/08/03 11:24:45;;;;;;;5.43;5.03;;;22.80;99.90;;;;;;5014754;28;20225;-83
2023/08/03 11:27:13;;;;;;;3.13;2.10;;;23.00;99.90;;;;;;5009605;28;20204;-82
2023/08/03 11:29:54;;;;;;;5.37;4.97;;;23.30;99.90;;;;;;5002321;28;20681;-82
2023/08/03 11:32:25;;;;;;;2.60;2.40;;;23.70;99.90;;;;;;5005341;28;20428;-84
2023/08/03 11:34:58;;;;;;;2.43;2.17;;;24.20;99.90;;;;;;4997782;28;20221;-83
2023/08/03 11:37:28;;;;;;;5.23;4.93;;;24.50;99.90;;;;;;5003386;28;20201;-84
2023/08/03 11:39:55;;;;;;;5.47;5.10;;;24.50;99.90;;;;;;5009641;28;20201;-84
2023/08/03 11:42:22;;;;;;;6.00;5.40;;;24.10;99.90;;;;;;5018564;28;20200;-83
2023/08/03 11:44:52;;;;;;;5.30;4.80;;;24.00;99.90;;;;;;5016883;28;20232;-84
2023/08/03 11:47:19;;;;;;;4.20;3.83;;;23.90;99.90;;;;;;5010536;28;20584;-84
2023/08/03 11:49:48;;;;;;;5.80;5.40;;;24.00;99.90;;;;;;5002024;28;20247;-81
2023/08/03 11:52:18;;;;;;;3.33;3.07;;;24.20;99.90;;;;;;4997765;28;20201;-79
2023/08/03 11:54:47;;;;;;;5.40;5.00;;;24.10;99.90;;;;;;5021801;28;20229;-79
2023/08/03 11:59:59;;;;;;;3.57;3.37;;;24.00;99.90;;;;;;5008639;28;20204;-79
2023/08/03 12:02:39;;;;;;;5.27;4.87;;;24.00;99.90;;;;;;5011178;28;20286;-79
2023/08/03 12:05:06;;;;;;;4.73;4.43;;;24.00;99.90;;;;;;4996108;28;20221;-80
2023/08/03 12:07:33;;;;;;;5.10;4.70;;;24.00;99.90;;;;;;5003658;28;20200;-78
2023/08/03 12:10:01;;;;;;;5.53;5.23;;;23.80;99.90;;;;;;5002980;28;20208;-77
2023/08/03 12:12:28;;;;;;;5.87;5.37;;;23.60;99.90;;;;;;5006139;28;20193;-77
2023/08/03 12:14:55;;;;;;;4.70;4.30;;;23.50;99.90;;;;;;5005817;28;20276;-78
2023/08/03 12:17:22;;;;;;;3.13;2.47;;;23.40;99.90;;;;;;5009900;28;20204;-78
2023/08/03 12:19:48;;;;;;;2.17;2.07;;;23.30;99.90;;;;;;5001156;28;20197;-79
2023/08/03 12:22:16;;;;;;;4.00;3.73;;;23.20;99.90;;;;;;5006127;28;20666;-83
2023/08/03 12:24:42;;;;;;;2.53;2.20;;;23.40;99.90;;;;;;5011321;28;20214;-83
2023/08/03 12:27:11;;;;;;;6.20;5.60;;;23.60;99.90;;;;;;5007712;28;20259;-83
2023/08/03 12:29:38;;;;;;;5.83;5.40;;;23.80;99.90;;;;;;4997885;28;20220;-83
2023/08/03 12:32:05;;;;;;;5.70;5.30;;;23.90;99.90;;;;;;5006504;28;20208;-83
2023/08/03 12:34:32;;;;;;;6.87;6.37;;;23.90;99.90;;;;;;5007852;28;20228;-83
2023/08/03 12:36:59;;;;;;;6.43;6.03;;;23.90;99.90;;;;;;5012304;28;20255;-83
2023/08/03 12:39:25;;;;;;;6.47;6.00;;;24.20;99.90;;;;;;5008302;28;20342;-83
2023/08/03 12:41:52;;;;;;;6.40;5.90;;;24.20;99.90;;;;;;5012396;28;20208;-83
2023/08/03 12:44:21;;;;;;;5.83;5.53;;;23.90;99.90;;;;;;4998625;28;20715;-84
2023/08/03 12:46:50;;;;;;;6.60;6.20;;;23.80;99.90;;;;;;5001842;28;20193;-82
2023/08/03 12:49:18;;;;;;;6.20;5.80;;;23.80;99.90;;;;;;5002837;28;20216;-84
2023/08/03 12:51:57;;;;;;;6.50;6.10;;;24.00;99.90;;;;;;5002360;28;20289;-88
2023/08/03 12:54:23;;;;;;;6.80;6.40;;;24.00;99.90;;;;;;5004854;28;20245;-83